createdAt,value
2019-04-03T00:00:47.521Z,0.33
2019-04-03T00:01:57.197Z,0.36
2019-04-03T00:03:09.822Z,0.3
2019-04-03T00:04:20.102Z,0.39
2019-04-03T00:05:30.133Z,0.34
2019-04-03T00:06:42.406Z,0.34
2019-04-03T00:07:52.332Z,0.45
2019-04-03T00:09:02.433Z,0.4
2019-04-03T00:10:14.437Z,0.44
2019-04-03T00:11:24.626Z,0.4
2019-04-03T00:12:34.551Z,0.33
2019-04-03T00:13:47.344Z,0.37
2019-04-03T00:14:57.389Z,0.36
2019-04-03T00:16:07.087Z,0.47
2019-04-03T00:17:19.867Z,0.33
2019-04-03T00:18:29.821Z,0.39
2019-04-03T00:19:39.757Z,0.37
2019-04-03T00:20:53.897Z,0.29
2019-04-03T00:22:03.844Z,0.34
2019-04-03T00:23:14.051Z,0.31
2019-04-03T00:24:25.316Z,0.19
2019-04-03T00:25:35.354Z,0.26
2019-04-03T00:26:45.295Z,0.16
2019-04-03T00:27:57.799Z,0.12
2019-04-03T00:29:07.762Z,0.13
2019-04-03T00:30:17.679Z,0.01
2019-04-03T00:31:29.648Z,0.06
2019-04-03T00:32:39.574Z,-0.02
2019-04-03T00:33:49.671Z,0.06
2019-04-03T00:35:01.246Z,-0.06
2019-04-03T00:36:11.286Z,-0.02
2019-04-03T00:37:21.482Z,-0.07
2019-04-03T00:38:32.969Z,-0.13
2019-04-03T00:39:43.156Z,-0.15
2019-04-03T00:40:54.240Z,-0.2
2019-04-03T00:42:04.755Z,-0.27
2019-04-03T00:43:14.726Z,-0.27
2019-04-03T00:44:26.615Z,-0.31
2019-04-03T00:45:36.533Z,-0.3
2019-04-03T00:46:46.593Z,-0.3
2019-04-03T00:47:58.447Z,-0.3
2019-04-03T00:49:08.540Z,-0.28
2019-04-03T00:50:18.497Z,-0.35
2019-04-03T00:51:32.107Z,-0.31
2019-04-03T00:52:41.882Z,-0.27
2019-04-03T00:53:51.973Z,-0.31
2019-04-03T00:55:03.390Z,-0.18
2019-04-03T00:56:13.309Z,-0.28
2019-04-03T00:57:24.659Z,-0.27
2019-04-03T00:58:36.074Z,-0.26
2019-04-03T00:59:46.210Z,-0.24
2019-04-03T01:00:58.596Z,-0.3
2019-04-03T01:02:08.646Z,-0.3
2019-04-03T01:03:18.569Z,-0.3
2019-04-03T01:04:30.807Z,-0.26
2019-04-03T01:05:40.779Z,-0.21
2019-04-03T01:06:50.722Z,-0.31
2019-04-03T01:08:04.729Z,-0.28
2019-04-03T01:09:14.683Z,-0.33
2019-04-03T01:10:25.014Z,-0.28
2019-04-03T01:11:37.011Z,-0.33
2019-04-03T01:12:47.033Z,-0.26
2019-04-03T01:13:56.879Z,-0.3
2019-04-03T01:15:08.876Z,-0.3
2019-04-03T01:16:19.167Z,-0.3
2019-04-03T01:17:29.167Z,-0.26
2019-04-03T01:18:42.104Z,-0.31
2019-04-03T01:19:52.025Z,-0.26
2019-04-03T01:21:01.993Z,-0.27
2019-04-03T01:22:14.187Z,-0.38
2019-04-03T01:23:24.107Z,-0.36
2019-04-03T01:24:34.029Z,-0.33
2019-04-03T01:25:46.203Z,-0.35
2019-04-03T01:26:56.123Z,-0.36
2019-04-03T01:28:06.058Z,-0.35
2019-04-03T01:29:18.589Z,-0.38
2019-04-03T01:30:28.518Z,-0.38
2019-04-03T01:31:38.481Z,-0.33
2019-04-03T01:32:51.868Z,-0.31
2019-04-03T01:34:02.135Z,-0.3
2019-04-03T01:35:15.532Z,-0.28
2019-04-03T01:36:27.182Z,-0.23
2019-04-03T01:37:37.102Z,-0.31
2019-04-03T01:38:47.893Z,-0.13
2019-04-03T01:39:59.510Z,-0.17
2019-04-03T01:41:09.677Z,-0.06
2019-04-03T01:42:21.178Z,-0.09
2019-04-03T01:43:31.739Z,-0.12
2019-04-03T01:44:41.696Z,-0.17
2019-04-03T01:45:51.640Z,-0.2
2019-04-03T01:47:04.171Z,-0.18
2019-04-03T01:48:14.241Z,-0.35
2019-04-03T01:49:24.162Z,-0.27
2019-04-03T01:50:35.864Z,-0.39
2019-04-03T01:51:45.837Z,-0.42
2019-04-03T01:52:55.987Z,-0.51
2019-04-03T01:54:08.541Z,-0.54
2019-04-03T01:55:18.460Z,-0.57
2019-04-03T01:56:28.437Z,-0.54
2019-04-03T01:57:41.889Z,-0.69
2019-04-03T01:58:51.813Z,-0.75
2019-04-03T02:00:01.827Z,-0.75
2019-04-03T02:01:14.487Z,-0.72
2019-04-03T02:02:24.406Z,-0.75
2019-04-03T02:03:34.329Z,-0.7
2019-04-03T02:04:47.947Z,-0.72
2019-04-03T02:05:57.889Z,-0.78
2019-04-03T02:07:07.976Z,-0.72
2019-04-03T02:08:20.482Z,-0.89
2019-04-03T02:09:30.259Z,-0.75
2019-04-03T02:10:40.187Z,-0.93
2019-04-03T02:11:52.120Z,-0.91
2019-04-03T02:13:02.053Z,-0.81
2019-04-03T02:14:12.021Z,-0.84
2019-04-03T02:15:24.489Z,-0.97
2019-04-03T02:16:34.410Z,-0.97
2019-04-03T02:17:44.361Z,-0.96
2019-04-03T02:18:55.352Z,-1.04
2019-04-03T02:20:05.934Z,-1.03
2019-04-03T02:21:15.962Z,-1.07
2019-04-03T02:22:26.041Z,-1.12
2019-04-03T02:23:37.461Z,-1.11
2019-04-03T02:24:46.879Z,-1.17
2019-04-03T02:25:56.940Z,-1.18
2019-04-03T02:27:09.827Z,-1.24
2019-04-03T02:28:19.999Z,-1.27
2019-04-03T02:29:29.919Z,-1.38
2019-04-03T02:30:40.034Z,-1.33
2019-04-03T02:31:56.657Z,-1.45
2019-04-03T02:33:06.829Z,-1.4
2019-04-03T02:34:17.160Z,-1.24
2019-04-03T02:35:26.858Z,-1.18
2019-04-03T02:36:37.031Z,-1.18
2019-04-03T02:37:54.828Z,-1.18
2019-04-03T02:39:04.858Z,-1.11
2019-04-03T02:40:15.012Z,-1.17
2019-04-03T02:41:25.510Z,-1.17
2019-04-03T02:42:35.498Z,-1.12
2019-04-03T02:43:51.625Z,-1.12
2019-04-03T02:45:02.318Z,-1.11
2019-04-03T02:46:12.894Z,-1.07
2019-04-03T02:47:23.266Z,-1.12
2019-04-03T02:48:36.771Z,-1.17
2019-04-03T02:49:48.667Z,-1.11
2019-04-03T02:50:58.992Z,-1.11
2019-04-03T02:52:09.449Z,-1.09
2019-04-03T02:53:20.114Z,-1.14
2019-04-03T02:54:37.258Z,-1.18
2019-04-03T02:55:47.395Z,-1.17
2019-04-03T02:56:57.423Z,-1.09
2019-04-03T02:58:07.555Z,-1.24
2019-04-03T02:59:17.758Z,-1.21
2019-04-03T03:00:34.666Z,-1.24
2019-04-03T03:01:45.516Z,-1.21
2019-04-03T03:02:55.985Z,-1.29
2019-04-03T03:04:06.207Z,-1.22
2019-04-03T03:05:16.199Z,-1.17
2019-04-03T03:06:26.431Z,-1.24
2019-04-03T03:07:41.311Z,-1.19
2019-04-03T03:08:51.423Z,-1.21
2019-04-03T03:10:01.833Z,-1.33
2019-04-03T03:11:11.529Z,-1.25
2019-04-03T03:12:21.575Z,-1.29
2019-04-03T03:13:39.063Z,-1.36
2019-04-03T03:14:48.775Z,-1.39
2019-04-03T03:15:58.832Z,-1.4
2019-04-03T03:17:09.225Z,-1.39
2019-04-03T03:18:19.542Z,-1.42
2019-04-03T03:19:34.943Z,-1.53
2019-04-03T03:20:45.738Z,-1.54
2019-04-03T03:21:56.181Z,-1.68
2019-04-03T03:23:05.880Z,-1.66
2019-04-03T03:24:15.980Z,-1.75
2019-04-03T03:25:26.333Z,-1.76
2019-04-03T03:26:42.542Z,-1.94
2019-04-03T03:27:52.500Z,-1.9
2019-04-03T03:29:27.437Z,-1.92
2019-04-03T03:31:04.729Z,-1.97
2019-04-03T03:32:36.815Z,-2.04
2019-04-03T03:33:48.876Z,-1.94
2019-04-03T03:35:32.300Z,-1.89
2019-04-03T03:37:05.968Z,-1.84
2019-04-03T03:38:20.673Z,-1.9
2019-04-03T03:39:35.487Z,-2.05
2019-04-03T03:40:52.455Z,-1.93
2019-04-03T03:42:04.303Z,-2.04
2019-04-03T03:43:14.691Z,-2
2019-04-03T03:44:24.727Z,-2.1
2019-04-03T03:45:35.068Z,-2.11
2019-04-03T03:46:45.463Z,-2.17
2019-04-03T03:47:55.749Z,-2.13
2019-04-03T03:49:06.165Z,-2.04
2019-04-03T03:50:16.363Z,-1.97
2019-04-03T03:51:35.382Z,-2.04
2019-04-03T03:52:45.413Z,-1.94
2019-04-03T03:53:55.778Z,-1.93
2019-04-03T03:55:06.306Z,-1.89
2019-04-03T03:56:16.744Z,-1.89
2019-04-03T03:57:27.138Z,-1.79
2019-04-03T03:58:37.777Z,-1.97
2019-04-03T03:59:55.360Z,-1.92
2019-04-03T04:01:06.333Z,-1.9
2019-04-03T04:02:16.488Z,-1.92
2019-04-03T04:03:26.470Z,-1.89
2019-04-03T04:04:36.810Z,-1.89
2019-04-03T04:05:47.332Z,-1.9
2019-04-03T04:07:06.269Z,-1.94
2019-04-03T04:08:17.587Z,-1.96
2019-04-03T04:09:27.724Z,-1.92
2019-04-03T04:10:41.224Z,-1.97
2019-04-03T04:11:51.338Z,-2
2019-04-03T04:13:01.487Z,-1.93
2019-04-03T04:14:11.780Z,-1.92
2019-04-03T04:15:31.823Z,-1.93
2019-04-03T04:16:43.204Z,-2
2019-04-03T04:17:55.989Z,-1.99
2019-04-03T04:19:05.993Z,-2.08
2019-04-03T04:20:16.550Z,-2.08
2019-04-03T04:21:26.500Z,-1.97
2019-04-03T04:22:36.719Z,-1.93
2019-04-03T04:23:46.998Z,-2.07
2019-04-03T04:25:03.619Z,-2.04
2019-04-03T04:26:13.523Z,-1.99
2019-04-03T04:27:23.685Z,-1.94
2019-04-03T04:28:33.381Z,-1.99
2019-04-03T04:29:46.916Z,-2.04
2019-04-03T04:30:56.838Z,-2
2019-04-03T04:32:06.830Z,-1.99
2019-04-03T04:33:22.082Z,-1.99
2019-04-03T04:34:31.762Z,-2.04
2019-04-03T04:35:42.023Z,-2
2019-04-03T04:36:53.018Z,-2.02
2019-04-03T04:38:08.002Z,-2.08
2019-04-03T04:39:18.330Z,-2.1
2019-04-03T04:40:28.935Z,-2.11
2019-04-03T04:41:40.632Z,-2.11
2019-04-03T04:42:50.561Z,-2.07
2019-04-03T04:44:00.480Z,-2.14
2019-04-03T04:45:11.742Z,-2.11
2019-04-03T04:46:22.025Z,-2.15
2019-04-03T04:47:31.995Z,-2.18
2019-04-03T04:48:42.407Z,-2.18
2019-04-03T04:49:53.566Z,-2.18
2019-04-03T04:51:04.080Z,-2.14
2019-04-03T04:52:13.994Z,-2.17
2019-04-03T04:53:23.915Z,-2.14
2019-04-03T04:54:37.262Z,-2.25
2019-04-03T04:55:50.479Z,-2.23
2019-04-03T04:57:00.627Z,-2.26
2019-04-03T04:58:16.238Z,-2.22
2019-04-03T04:59:26.163Z,-2.22
2019-04-03T05:00:36.473Z,-2.18
2019-04-03T05:01:46.993Z,-2.18
2019-04-03T05:03:00.988Z,-2.2
2019-04-03T05:04:14.751Z,-2.22
2019-04-03T05:05:26.756Z,-2.17
2019-04-03T05:06:39.061Z,-2.1
2019-04-03T05:07:49.173Z,-2.05
2019-04-03T05:08:59.254Z,-2.05
2019-04-03T05:10:12.522Z,-2.04
2019-04-03T05:11:25.431Z,-2.07
2019-04-03T05:12:35.139Z,-1.93
2019-04-03T05:13:51.966Z,-2.08
2019-04-03T05:15:02.243Z,-2.05
2019-04-03T05:16:12.181Z,-2.04
2019-04-03T05:17:26.986Z,-1.87
2019-04-03T05:18:37.213Z,-1.82
2019-04-03T05:19:48.721Z,-1.82
2019-04-03T05:20:59.195Z,-1.81
2019-04-03T05:22:09.528Z,-1.81
2019-04-03T05:23:19.707Z,-1.81
2019-04-03T05:24:33.530Z,-1.71
2019-04-03T05:25:43.634Z,-1.71
2019-04-03T05:26:53.556Z,-1.58
2019-04-03T05:28:06.623Z,-1.61
2019-04-03T05:29:16.554Z,-1.56
2019-04-03T05:30:26.716Z,-1.57
2019-04-03T05:31:38.589Z,-1.46
2019-04-03T05:32:49.064Z,-1.53
2019-04-03T05:33:59.052Z,-1.5
2019-04-03T05:35:08.984Z,-1.42
2019-04-03T05:36:23.003Z,-1.46
2019-04-03T05:37:32.923Z,-1.54
2019-04-03T05:38:43.348Z,-1.58
2019-04-03T05:39:55.484Z,-1.54
2019-04-03T05:41:05.422Z,-1.53
2019-04-03T05:42:15.341Z,-1.48
2019-04-03T05:43:25.471Z,-1.53
2019-04-03T05:44:38.907Z,-1.56
2019-04-03T05:45:49.003Z,-1.42
2019-04-03T05:47:01.996Z,-1.46
2019-04-03T05:48:20.495Z,-1.46
2019-04-03T05:49:30.634Z,-1.32
2019-04-03T05:50:41.930Z,-1.32
2019-04-03T05:51:51.866Z,-1.29
2019-04-03T05:53:01.786Z,-1.22
2019-04-03T05:54:17.015Z,-1.19
2019-04-03T05:55:26.943Z,-1.09
2019-04-03T05:56:36.718Z,-1.01
2019-04-03T05:57:50.785Z,-0.94
2019-04-03T05:59:05.577Z,-0.89
2019-04-03T06:00:15.570Z,-0.77
2019-04-03T06:01:25.769Z,-0.75
2019-04-03T06:02:35.695Z,-0.72
2019-04-03T06:03:50.384Z,-0.66
2019-04-03T06:05:00.667Z,-0.57
2019-04-03T06:06:19.693Z,-0.51
2019-04-03T06:07:30.018Z,-0.46
2019-04-03T06:08:40.200Z,-0.45
2019-04-03T06:09:50.162Z,-0.39
2019-04-03T06:11:11.581Z,-0.27
2019-04-03T06:12:24.265Z,-0.21
2019-04-03T06:13:34.569Z,-0.06
2019-04-03T06:14:44.755Z,-0.03
2019-04-03T06:15:58.662Z,-0.05
2019-04-03T06:17:08.586Z,-0.06
2019-04-03T06:18:20.524Z,0.01
2019-04-03T06:19:42.202Z,0
2019-04-03T06:20:52.142Z,-0.09
2019-04-03T06:22:02.571Z,-0.1
2019-04-03T06:23:15.378Z,-0.03
2019-04-03T06:24:29.488Z,0.01
2019-04-03T06:25:39.686Z,-0.02
2019-04-03T06:26:49.897Z,-0.02
2019-04-03T06:28:00.502Z,0.15
2019-04-03T06:29:12.793Z,0.11
2019-04-03T06:30:27.251Z,0.18
2019-04-03T06:31:37.481Z,0.13
2019-04-03T06:32:47.627Z,0.16
2019-04-03T06:34:00.254Z,0.19
2019-04-03T06:35:13.617Z,0.18
2019-04-03T06:36:24.041Z,0.16
2019-04-03T06:37:33.965Z,0.2
2019-04-03T06:38:43.890Z,0.15
2019-04-03T06:39:54.006Z,0.23
2019-04-03T06:41:07.764Z,0.11
2019-04-03T06:42:19.102Z,0.24
2019-04-03T06:43:32.581Z,0.29
2019-04-03T06:44:42.679Z,0.19
2019-04-03T06:45:53.144Z,0.3
2019-04-03T06:47:06.466Z,0.26
2019-04-03T06:48:16.491Z,0.2
2019-04-03T06:49:26.672Z,0.29
2019-04-03T06:50:36.891Z,0.29
2019-04-03T06:51:48.694Z,0.33
2019-04-03T06:52:59.122Z,0.37
2019-04-03T06:54:12.837Z,0.34
2019-04-03T06:55:24.760Z,0.48
2019-04-03T06:56:35.467Z,0.55
2019-04-03T06:57:48.380Z,0.64
2019-04-03T06:58:58.701Z,0.73
2019-04-03T07:00:08.622Z,0.88
2019-04-03T07:01:21.865Z,1.09
2019-04-03T07:02:34.861Z,1.09
2019-04-03T07:03:44.974Z,1.12
2019-04-03T07:04:55.016Z,1.14
2019-04-03T07:06:08.213Z,1.07
2019-04-03T07:07:36.641Z,1.16
2019-04-03T07:08:47.125Z,1.13
2019-04-03T07:09:57.314Z,1.06
2019-04-03T07:11:09.289Z,0.95
2019-04-03T07:12:30.872Z,0.99
2019-04-03T07:13:41.044Z,1.12
2019-04-03T07:14:51.438Z,1.18
2019-04-03T07:16:01.968Z,1.14
2019-04-03T07:17:12.256Z,1.22
2019-04-03T07:18:22.666Z,1.14
2019-04-03T07:19:32.646Z,1.16
2019-04-03T07:20:44.515Z,1.06
2019-04-03T07:21:59.970Z,1.13
2019-04-03T07:23:09.909Z,1.16
2019-04-03T07:24:20.287Z,1.18
2019-04-03T07:25:31.663Z,1.24
2019-04-03T07:26:43.433Z,1.27
2019-04-03T07:27:53.569Z,1.32
2019-04-03T07:29:03.723Z,1.48
2019-04-03T07:30:21.696Z,1.52
2019-04-03T07:31:32.274Z,1.67
2019-04-03T07:32:42.689Z,1.7
2019-04-03T07:33:52.393Z,1.76
2019-04-03T07:35:13.868Z,1.82
2019-04-03T07:36:23.848Z,1.88
2019-04-03T07:37:33.924Z,1.97
2019-04-03T07:38:43.843Z,2.01
2019-04-03T07:39:55.052Z,2.05
2019-04-03T07:41:06.831Z,2.04
2019-04-03T07:42:17.425Z,2.12
2019-04-03T07:43:31.939Z,2.21
2019-04-03T07:44:42.259Z,2.18
2019-04-03T07:45:52.524Z,2.19
2019-04-03T07:47:05.946Z,2.25
2019-04-03T07:48:16.153Z,2.23
2019-04-03T07:49:26.107Z,2.36
2019-04-03T07:50:39.692Z,2.34
2019-04-03T07:51:51.257Z,2.39
2019-04-03T07:53:01.703Z,2.36
2019-04-03T07:54:12.154Z,2.43
2019-04-03T07:55:24.181Z,2.4
2019-04-03T07:56:36.454Z,2.52
2019-04-03T07:57:46.890Z,2.47
2019-04-03T07:58:57.113Z,2.52
2019-04-03T08:00:12.313Z,2.58
2019-04-03T08:01:23.631Z,2.57
2019-04-03T08:02:36.314Z,2.54
2019-04-03T08:03:55.548Z,2.58
2019-04-03T08:05:06.064Z,2.73
2019-04-03T08:06:16.009Z,2.76
2019-04-03T08:07:25.984Z,2.65
2019-04-03T08:08:35.871Z,2.88
2019-04-03T08:09:45.864Z,2.91
2019-04-03T08:10:55.789Z,2.91
2019-04-03T08:12:09.417Z,2.95
2019-04-03T08:13:19.880Z,2.95
2019-04-03T08:14:29.968Z,2.94
2019-04-03T08:15:40.278Z,3
2019-04-03T08:16:56.099Z,2.98
2019-04-03T08:18:07.625Z,3.03
2019-04-03T08:19:18.024Z,2.94
2019-04-03T08:20:33.969Z,2.97
2019-04-03T08:21:43.957Z,2.98
2019-04-03T08:22:54.173Z,2.93
2019-04-03T08:24:04.118Z,2.76
2019-04-03T08:25:17.625Z,2.68
2019-04-03T08:26:30.030Z,2.62
2019-04-03T08:27:40.220Z,2.77
2019-04-03T08:28:50.560Z,2.88
2019-04-03T08:30:00.490Z,2.77
2019-04-03T08:31:15.861Z,2.59
2019-04-03T08:32:25.844Z,2.55
2019-04-03T08:33:38.084Z,2.54
2019-04-03T08:34:48.757Z,2.58
2019-04-03T08:35:59.215Z,2.64
2019-04-03T08:37:14.756Z,2.55
2019-04-03T08:38:38.558Z,2.65
2019-04-03T08:39:53.668Z,2.46
2019-04-03T08:41:08.801Z,2.43
2019-04-03T08:42:18.728Z,2.41
2019-04-03T08:43:31.340Z,2.43
2019-04-03T08:44:42.208Z,2.55
2019-04-03T08:45:52.240Z,2.55
2019-04-03T08:47:02.464Z,2.68
2019-04-03T08:48:13.056Z,2.7
2019-04-03T08:49:28.336Z,2.64
2019-04-03T08:50:38.686Z,2.62
2019-04-03T08:51:49.160Z,2.72
2019-04-03T08:52:59.263Z,2.72
2019-04-03T08:54:12.511Z,2.91
2019-04-03T08:55:22.859Z,2.88
2019-04-03T08:56:33.144Z,2.98
2019-04-03T08:57:45.710Z,3.09
2019-04-03T08:59:02.611Z,3.06
2019-04-03T09:00:12.538Z,3.15
2019-04-03T09:01:22.651Z,3.26
2019-04-03T09:02:33.206Z,3.37
2019-04-03T09:03:43.847Z,3.45
2019-04-03T09:04:55.535Z,3.58
2019-04-03T09:06:05.730Z,3.68
2019-04-03T09:07:15.857Z,3.7
2019-04-03T09:08:28.885Z,3.68
2019-04-03T09:09:40.763Z,3.58
2019-04-03T09:10:50.685Z,3.77
2019-04-03T09:12:00.629Z,3.64
2019-04-03T09:13:25.733Z,3.46
2019-04-03T09:14:35.928Z,3.21
2019-04-03T09:15:45.922Z,3.08
2019-04-03T09:16:55.594Z,3.16
2019-04-03T09:18:10.799Z,3.18
2019-04-03T09:19:22.141Z,3
2019-04-03T09:20:34.800Z,2.94
2019-04-03T09:21:53.645Z,2.8
2019-04-03T09:23:04.186Z,2.68
2019-04-03T09:24:14.197Z,2.82
2019-04-03T09:25:24.147Z,2.8
2019-04-03T09:26:42.105Z,2.75
2019-04-03T09:27:52.424Z,2.68
2019-04-03T09:29:02.952Z,2.68
2019-04-03T09:30:15.372Z,2.68
2019-04-03T09:31:25.720Z,2.64
2019-04-03T09:32:39.273Z,2.79
2019-04-03T09:33:49.824Z,2.72
2019-04-03T09:35:06.013Z,2.62
2019-04-03T09:36:16.114Z,2.52
2019-04-03T09:37:26.535Z,2.54
2019-04-03T09:38:40.489Z,2.47
2019-04-03T09:39:51.290Z,2.58
2019-04-03T09:41:01.858Z,2.58
2019-04-03T09:42:11.614Z,2.54
2019-04-03T09:43:24.141Z,2.61
2019-04-03T09:44:34.375Z,2.62
2019-04-03T09:45:44.294Z,2.79
2019-04-03T09:46:54.609Z,2.83
2019-04-03T09:48:11.141Z,2.93
2019-04-03T09:49:22.392Z,2.95
2019-04-03T09:50:32.603Z,2.91
2019-04-03T09:51:42.834Z,2.83
2019-04-03T09:52:57.609Z,2.77
2019-04-03T09:54:10.006Z,2.64
2019-04-03T09:55:20.277Z,2.68
2019-04-03T09:56:30.349Z,2.76
2019-04-03T09:57:42.687Z,2.9
2019-04-03T09:58:55.464Z,3.01
2019-04-03T10:00:09.478Z,2.98
2019-04-03T10:01:22.977Z,2.95
2019-04-03T10:02:33.224Z,2.91
2019-04-03T10:03:43.158Z,2.79
2019-04-03T10:04:53.628Z,2.58
2019-04-03T10:06:06.406Z,2.73
2019-04-03T10:07:16.684Z,2.87
2019-04-03T10:08:27.278Z,2.98
2019-04-03T10:09:42.784Z,3.15
2019-04-03T10:10:53.882Z,3.24
2019-04-03T10:12:03.808Z,3.41
2019-04-03T10:13:13.728Z,3.45
2019-04-03T10:14:23.983Z,3.43
2019-04-03T10:15:36.715Z,3.46
2019-04-03T10:16:46.994Z,3.45
2019-04-03T10:17:57.583Z,3.27
2019-04-03T10:19:07.522Z,3.26
2019-04-03T10:20:22.451Z,3.15
2019-04-03T10:21:35.716Z,3.18
2019-04-03T10:22:46.518Z,3.29
2019-04-03T10:23:57.666Z,3.4
2019-04-03T10:25:11.091Z,3.5
2019-04-03T10:26:21.419Z,3.56
2019-04-03T10:27:31.642Z,3.68
2019-04-03T10:28:46.742Z,3.76
2019-04-03T10:30:00.740Z,3.7
2019-04-03T10:31:10.665Z,3.7
2019-04-03T10:32:20.739Z,3.7
2019-04-03T10:33:35.771Z,3.76
2019-04-03T10:34:46.186Z,3.74
2019-04-03T10:35:56.363Z,3.81
2019-04-03T10:37:06.586Z,3.81
2019-04-03T10:38:23.117Z,3.77
2019-04-03T10:39:33.354Z,3.76
2019-04-03T10:40:48.712Z,3.81
2019-04-03T10:42:03.824Z,3.84
2019-04-03T10:43:14.260Z,3.84
2019-04-03T10:44:24.298Z,3.81
2019-04-03T10:45:34.223Z,3.71
2019-04-03T10:46:44.778Z,3.59
2019-04-03T10:48:00.593Z,3.7
2019-04-03T10:49:11.142Z,3.73
2019-04-03T10:50:21.625Z,3.73
2019-04-03T10:51:33.808Z,3.73
2019-04-03T10:52:51.534Z,3.73
2019-04-03T10:54:02.187Z,3.68
2019-04-03T10:55:11.897Z,3.74
2019-04-03T10:56:21.567Z,3.74
2019-04-03T10:57:31.669Z,3.74
2019-04-03T10:58:50.003Z,3.76
2019-04-03T11:00:01.012Z,3.81
2019-04-03T11:01:11.559Z,3.81
2019-04-03T11:02:22.164Z,3.71
2019-04-03T11:03:32.146Z,3.84
2019-04-03T11:04:42.127Z,3.88
2019-04-03T11:05:51.813Z,3.92
2019-04-03T11:07:01.747Z,3.89
2019-04-03T11:08:12.096Z,3.94
2019-04-03T11:09:22.580Z,3.92
2019-04-03T11:10:32.425Z,4.04
2019-04-03T11:11:45.326Z,4.16
2019-04-03T11:12:55.682Z,4.3
2019-04-03T11:14:11.993Z,4.45
2019-04-03T11:15:21.943Z,4.46
2019-04-03T11:16:32.221Z,4.49
2019-04-03T11:17:44.573Z,4.68
2019-04-03T11:19:09.181Z,4.79
2019-04-03T11:20:19.119Z,4.97
2019-04-03T11:21:29.660Z,5.02
2019-04-03T11:22:48.075Z,5.12
2019-04-03T11:24:12.638Z,5.16
2019-04-03T11:25:22.668Z,5.13
2019-04-03T11:26:32.590Z,5.33
2019-04-03T11:27:48.948Z,5.38
2019-04-03T11:28:59.753Z,5.46
2019-04-03T11:30:18.119Z,5.58
2019-04-03T11:31:42.067Z,5.61
2019-04-03T11:32:53.053Z,5.64
2019-04-03T11:34:03.575Z,5.54
2019-04-03T11:35:13.818Z,5.46
2019-04-03T11:36:33.015Z,5.58
2019-04-03T11:37:43.060Z,5.61
2019-04-03T11:38:52.984Z,5.58
2019-04-03T11:40:27.062Z,5.44
2019-04-03T11:41:37.155Z,5.34
2019-04-03T11:42:47.097Z,5.37
2019-04-03T11:43:57.609Z,5.4
2019-04-03T11:45:09.653Z,5.31
2019-04-03T11:46:20.049Z,5.23
2019-04-03T11:47:30.503Z,5.01
2019-04-03T11:48:42.633Z,5.05
2019-04-03T11:49:57.964Z,5
2019-04-03T11:51:07.894Z,4.95
2019-04-03T11:52:17.864Z,4.87
2019-04-03T11:53:28.583Z,4.92
2019-04-03T11:54:43.906Z,4.89
2019-04-03T11:55:54.249Z,4.97
2019-04-03T11:57:04.577Z,5.07
2019-04-03T11:58:15.001Z,4.98
2019-04-03T11:59:29.382Z,4.94
2019-04-03T12:00:39.313Z,4.95
2019-04-03T12:01:49.961Z,4.92
2019-04-03T12:03:00.404Z,4.94
2019-04-03T12:04:12.666Z,4.64
2019-04-03T12:05:25.901Z,4.48
2019-04-03T12:06:35.887Z,4.57
2019-04-03T12:07:46.474Z,4.58
2019-04-03T12:08:59.287Z,4.46
2019-04-03T12:10:10.780Z,4.63
2019-04-03T12:11:21.077Z,4.76
2019-04-03T12:12:31.613Z,4.84
2019-04-03T12:13:42.935Z,4.87
2019-04-03T12:14:55.379Z,5.02
2019-04-03T12:16:05.442Z,5.1
2019-04-03T12:17:15.980Z,5.19
2019-04-03T12:18:26.738Z,5.15
2019-04-03T12:19:41.883Z,5.04
2019-04-03T12:20:54.894Z,4.98
2019-04-03T12:22:04.993Z,4.94
2019-04-03T12:23:15.271Z,4.92
2019-04-03T12:24:25.529Z,5
2019-04-03T12:25:42.842Z,5
2019-04-03T12:26:57.257Z,5.1
2019-04-03T12:28:09.858Z,5.19
2019-04-03T12:29:25.904Z,5.29
2019-04-03T12:30:36.376Z,5.31
2019-04-03T12:31:47.097Z,5.33
2019-04-03T12:32:57.212Z,5.29
2019-04-03T12:34:10.054Z,5.49
2019-04-03T12:35:20.263Z,5.46
2019-04-03T12:36:32.692Z,5.49
2019-04-03T12:37:42.959Z,5.56
2019-04-03T12:38:58.680Z,5.62
2019-04-03T12:40:08.611Z,5.72
2019-04-03T12:41:19.357Z,5.77
2019-04-03T12:42:32.710Z,5.84
2019-04-03T12:43:43.224Z,5.88
2019-04-03T12:44:59.788Z,5.9
2019-04-03T12:46:09.925Z,5.95
2019-04-03T12:47:19.857Z,5.92
2019-04-03T12:48:33.504Z,5.92
2019-04-03T12:49:43.893Z,6.02
2019-04-03T12:50:54.851Z,6.26
2019-04-03T12:52:09.243Z,6.41
2019-04-03T12:53:22.333Z,6.56
2019-04-03T12:54:32.764Z,6.82
2019-04-03T12:55:45.640Z,7.03
2019-04-03T12:56:56.003Z,7.03
2019-04-03T12:58:10.263Z,7.15
2019-04-03T12:59:22.875Z,7.25
2019-04-03T13:00:33.187Z,7.37
2019-04-03T13:01:43.774Z,7.41
2019-04-03T13:02:57.987Z,7.56
2019-04-03T13:04:08.361Z,7.58
2019-04-03T13:05:18.811Z,7.74
2019-04-03T13:06:29.368Z,7.9
2019-04-03T13:07:41.653Z,7.91
2019-04-03T13:08:53.858Z,7.96
2019-04-03T13:10:04.613Z,7.96
2019-04-03T13:11:18.428Z,8.08
2019-04-03T13:12:32.245Z,8.18
2019-04-03T13:13:43.842Z,8.16
2019-04-03T13:14:54.305Z,8.28
2019-04-03T13:16:05.062Z,8.17
2019-04-03T13:17:19.392Z,8.01
2019-04-03T13:18:29.319Z,7.91
2019-04-03T13:19:40.003Z,7.91
2019-04-03T13:20:50.329Z,7.78
2019-04-03T13:22:00.860Z,7.72
2019-04-03T13:23:13.263Z,7.64
2019-04-03T13:24:23.986Z,7.64
2019-04-03T13:25:34.169Z,7.64
2019-04-03T13:26:44.393Z,7.62
2019-04-03T13:27:55.077Z,7.58
2019-04-03T13:29:11.733Z,7.7
2019-04-03T13:30:22.484Z,7.77
2019-04-03T13:31:32.411Z,7.74
2019-04-03T13:32:43.123Z,7.96
2019-04-03T13:34:15.459Z,7.95
2019-04-03T13:35:25.534Z,7.88
2019-04-03T13:36:35.757Z,7.83
2019-04-03T13:37:45.480Z,7.78
2019-04-03T13:38:59.885Z,7.58
2019-04-03T13:40:12.343Z,7.58
2019-04-03T13:41:22.472Z,7.59
2019-04-03T13:42:35.847Z,7.5
2019-04-03T13:43:46.276Z,7.43
2019-04-03T13:45:02.995Z,7.5
2019-04-03T13:46:13.602Z,7.62
2019-04-03T13:47:24.349Z,7.66
2019-04-03T13:48:35.359Z,7.59
2019-04-03T13:49:48.809Z,7.66
2019-04-03T13:51:01.882Z,7.62
2019-04-03T13:52:14.464Z,7.64
2019-04-03T13:53:27.836Z,7.64
2019-04-03T13:54:38.117Z,7.61
2019-04-03T13:55:50.571Z,7.67
2019-04-03T13:57:01.277Z,7.61
2019-04-03T13:58:11.851Z,7.66
2019-04-03T13:59:22.938Z,7.56
2019-04-03T14:00:37.428Z,7.61
2019-04-03T14:01:47.710Z,7.61
2019-04-03T14:03:00.502Z,7.44
2019-04-03T14:04:10.665Z,7.39
2019-04-03T14:05:20.950Z,7.39
2019-04-03T14:06:40.921Z,7.25
2019-04-03T14:07:50.954Z,7.29
2019-04-03T14:09:01.700Z,7.15
2019-04-03T14:10:12.321Z,7.08
2019-04-03T14:11:22.249Z,7.04
2019-04-03T14:12:37.985Z,6.92
2019-04-03T14:13:52.939Z,6.89
2019-04-03T14:15:06.467Z,6.89
2019-04-03T14:16:26.177Z,6.86
2019-04-03T14:17:54.017Z,6.89
2019-04-03T14:19:07.318Z,6.83
2019-04-03T14:20:22.390Z,6.75
2019-04-03T14:21:37.937Z,6.77
2019-04-03T14:22:49.009Z,6.82
2019-04-03T14:24:00.259Z,6.71
2019-04-03T14:25:29.609Z,6.57
2019-04-03T14:26:49.697Z,6.56
2019-04-03T14:28:01.632Z,6.59
2019-04-03T14:29:13.639Z,6.64
2019-04-03T14:30:23.661Z,6.44
2019-04-03T14:31:41.227Z,6.47
2019-04-03T14:32:57.640Z,6.41
2019-04-03T14:34:07.677Z,6.38
2019-04-03T14:35:55.765Z,6.12
2019-04-03T14:37:05.706Z,6.1
2019-04-03T14:38:17.158Z,6.07
2019-04-03T14:39:27.608Z,6.02
2019-04-03T14:40:37.537Z,5.87
2019-04-03T14:41:53.036Z,5.87
2019-04-03T14:43:05.382Z,5.97
2019-04-03T14:44:15.387Z,5.88
2019-04-03T14:45:25.869Z,5.81
2019-04-03T14:46:36.434Z,5.77
2019-04-03T14:47:46.799Z,5.8
2019-04-03T14:49:05.612Z,5.73
2019-04-03T14:50:16.328Z,5.79
2019-04-03T14:51:26.563Z,5.8
2019-04-03T14:52:36.664Z,5.76
2019-04-03T14:53:48.220Z,5.79
2019-04-03T14:55:21.878Z,5.69
2019-04-03T14:56:38.450Z,5.52
2019-04-03T14:57:48.585Z,5.38
2019-04-03T14:59:04.111Z,5.2
2019-04-03T15:00:33.631Z,5.22
2019-04-03T15:01:43.554Z,5.13
2019-04-03T15:03:03.965Z,5.07
2019-04-03T15:04:15.090Z,5.07
2019-04-03T15:05:25.579Z,5.02
2019-04-03T15:06:35.928Z,5.04
2019-04-03T15:07:48.983Z,4.98
2019-04-03T15:09:00.522Z,5.02
2019-04-03T15:10:11.122Z,4.97
2019-04-03T15:11:24.086Z,4.98
2019-04-03T15:12:37.973Z,4.92
2019-04-03T15:13:51.878Z,4.95
2019-04-03T15:15:01.915Z,4.87
2019-04-03T15:16:12.373Z,4.86
2019-04-03T15:17:23.035Z,4.76
2019-04-03T15:18:33.868Z,4.71
2019-04-03T15:19:49.814Z,4.71
2019-04-03T15:21:02.211Z,4.58
2019-04-03T15:22:12.501Z,4.52
2019-04-03T15:23:22.420Z,4.5
2019-04-03T15:24:32.856Z,4.45
2019-04-03T15:25:47.486Z,4.46
2019-04-03T15:27:00.293Z,4.32
2019-04-03T15:28:10.904Z,4.34
2019-04-03T15:29:20.833Z,4.22
2019-04-03T15:30:30.780Z,4.25
2019-04-03T15:31:40.728Z,4.18
2019-04-03T15:32:56.674Z,4.2
2019-04-03T15:34:06.832Z,4.1
2019-04-03T15:35:17.295Z,4.07
2019-04-03T15:36:27.663Z,4.07
2019-04-03T15:37:44.499Z,4.09
2019-04-03T15:38:54.714Z,4.04
2019-04-03T15:40:07.042Z,4.02
2019-04-03T15:41:17.394Z,3.99
2019-04-03T15:42:27.962Z,3.91
2019-04-03T15:43:38.379Z,3.94
2019-04-03T15:44:54.153Z,3.92
2019-04-03T15:46:05.596Z,3.95
2019-04-03T15:47:33.864Z,3.92
2019-04-03T15:48:55.527Z,3.88
2019-04-03T15:50:05.671Z,3.77
2019-04-03T15:51:16.658Z,3.81